Time;durP1;ratioP1;P1;durP2;ratioP2;P2;SDS_P1;SDS_P2;PMS_P1;PMS_P2;Temp;Humidity;BMP_temperature;BMP_pressure;BME280_temperature;BME280_humidity;BME280_pressure;Samples;Min_cycle;Max_cycle;Signal;HPM_P1;HPM_P2
2022/08/10 00:01:33;;;;;;;;;;;23.90;74.20;;;;;;4866233;29;19932;-83
2022/08/10 00:04:00;;;;;;;;;;;23.90;73.80;;;;;;4866567;29;20010;-85
2022/08/10 00:06:27;;;;;;;;;;;23.90;73.40;;;;;;4878296;29;20304;-83
2022/08/10 00:08:54;;;;;;;;;;;23.90;72.90;;;;;;4870919;29;19939;-83
2022/08/10 00:11:20;;;;;;;;;;;23.90;72.60;;;;;;4878889;29;19959;-85
2022/08/10 00:13:47;;;;;;;;;;;23.90;72.00;;;;;;4875865;29;19992;-84
2022/08/10 00:16:14;;;;;;;;;;;23.90;71.60;;;;;;4871941;29;19980;-82
2022/08/10 00:18:41;;;;;;;;;;;23.90;71.10;;;;;;4891016;29;19928;-82
2022/08/10 00:21:07;;;;;;;;;;;23.80;71.20;;;;;;4869520;29;20011;-83
2022/08/10 00:23:35;;;;;;;;;;;23.80;71.50;;;;;;4868382;29;19929;-83
2022/08/10 00:26:02;;;;;;;;;;;23.80;71.70;;;;;;4878107;29;20452;-84
2022/08/10 00:28:29;;;;;;;;;;;23.80;72.50;;;;;;4888447;29;20375;-83
2022/08/10 00:30:56;;;;;;;;;;;23.80;72.90;;;;;;4853741;29;19932;-83
2022/08/10 00:33:23;;;;;;;;;;;23.70;73.70;;;;;;4861306;29;19935;-85
2022/08/10 00:35:50;;;;;;;;;;;23.60;74.20;;;;;;4854076;29;19932;-86
2022/08/10 00:38:17;;;;;;;;;;;23.60;74.50;;;;;;4858945;29;19932;-83
2022/08/10 00:40:44;;;;;;;;;;;23.50;74.70;;;;;;4862067;29;20393;-84
2022/08/10 00:43:11;;;;;;;;;;;23.40;75.30;;;;;;4868634;29;19987;-84
2022/08/10 00:45:38;;;;;;;;;;;23.40;75.40;;;;;;4889997;29;19981;-85
2022/08/10 00:48:05;;;;;;;;;;;23.30;75.60;;;;;;4849903;29;20351;-86
2022/08/10 00:50:33;;;;;;;;;;;23.30;76.10;;;;;;4858942;29;19957;-86
2022/08/10 00:53:00;;;;;;;;;;;23.20;75.90;;;;;;4868563;29;19932;-85
2022/08/10 00:55:27;;;;;;;;;;;23.20;76.00;;;;;;4854266;29;19932;-85
2022/08/10 00:57:54;;;;;;;;;;;23.10;75.80;;;;;;4853571;29;19935;-83
2022/08/10 01:00:22;;;;;;;;;;;23.10;75.70;;;;;;4890879;29;19928;-83
2022/08/10 01:02:49;;;;;;;;;;;23.10;75.80;;;;;;4848676;29;20440;-83
2022/08/10 01:05:16;;;;;;;;;;;23.00;76.20;;;;;;4849726;29;20019;-82
2022/08/10 01:07:51;;;;;;;;;;;23.00;76.00;;;;;;4855080;29;19928;-85
2022/08/10 01:10:26;;;;;;;;;;;23.00;76.00;;;;;;4847424;29;19929;-82
2022/08/10 01:13:04;;;;;;;;;;;22.90;76.20;;;;;;4858171;29;19928;-83
2022/08/10 01:15:54;;;;;;;;;;;22.90;76.30;;;;;;4857744;29;20293;-85
2022/08/10 01:18:25;;;;;;;;;;;22.90;76.20;;;;;;4863106;29;20362;-82
2022/08/10 01:21:07;;;;;;;;;;;22.90;76.20;;;;;;5083990;24;19935;-82
2022/08/10 01:23:44;;;;;;;;;;;22.80;76.10;;;;;;4921234;29;20834;-83
2022/08/10 01:26:11;;;;;;;;;;;22.80;76.30;;;;;;4931557;29;19930;-83
2022/08/10 01:29:16;;;;;;;;;;;22.80;76.70;;;;;;4923689;29;19956;-83
2022/08/10 01:31:48;;;;;;;;;;;22.70;77.00;;;;;;4918134;29;19926;-82
2022/08/10 01:34:21;;;;;;;;;;;22.60;77.20;;;;;;4939556;29;19990;-83
2022/08/10 01:36:52;;;;;;;;;;;22.60;77.30;;;;;;4931874;29;20430;-82
2022/08/10 01:39:22;;;;;;;;;;;22.50;77.50;;;;;;4925098;29;20342;-82
2022/08/10 01:41:52;;;;;;;;;;;22.40;77.40;;;;;;4932679;29;20002;-82
2022/08/10 01:44:24;;;;;;;;;;;22.40;77.20;;;;;;4926422;29;19930;-83
2022/08/10 01:46:54;;;;;;;;;;;22.40;77.40;;;;;;4943076;29;20020;-83
2022/08/10 01:49:23;;;;;;;;;;;22.30;77.30;;;;;;4932079;29;19937;-83
2022/08/10 01:51:55;;;;;;;;;;;22.30;77.50;;;;;;4952529;29;19937;-84
2022/08/10 01:54:27;;;;;;;;;;;22.30;77.70;;;;;;4914167;29;19930;-82
2022/08/10 01:56:55;;;;;;;;;;;22.30;77.80;;;;;;4930005;29;20358;-82
2022/08/10 01:59:41;;;;;;;;;;;22.20;77.80;;;;;;4924774;29;19974;-82
2022/08/10 02:02:25;;;;;;;;;;;22.20;77.80;;;;;;4937333;29;20318;-84
2022/08/10 02:04:53;;;;;;;;;;;22.20;77.70;;;;;;4933898;29;19933;-84
2022/08/10 02:07:22;;;;;;;;;;;22.20;77.70;;;;;;4926260;29;19935;-84
2022/08/10 02:09:51;;;;;;;;;;;22.20;78.10;;;;;;4909415;29;20023;-83
2022/08/10 02:12:23;;;;;;;;;;;22.20;78.50;;;;;;4962913;28;20449;-82
2022/08/10 02:14:52;;;;;;;;;;;22.10;78.80;;;;;;4932918;29;19983;-83
2022/08/10 02:17:25;;;;;;;;;;;22.00;78.90;;;;;;4925812;29;19927;-82
2022/08/10 02:20:20;;;;;;;;;;;22.00;78.90;;;;;;4932245;29;19998;-82
2022/08/10 02:22:48;;;;;;;;;;;22.00;78.90;;;;;;4906411;29;19927;-83
2022/08/10 02:25:16;;;;;;;;;;;21.90;78.80;;;;;;4937332;29;19931;-82
2022/08/10 02:28:04;;;;;;;;;;;21.90;78.60;;;;;;4929374;29;19957;-83
2022/08/10 02:30:31;;;;;;;;;;;21.90;78.60;;;;;;4903877;29;19928;-82
2022/08/10 02:32:59;;;;;;;;;;;21.90;78.60;;;;;;4910556;29;19927;-84
2022/08/10 02:35:27;;;;;;;;;;;21.90;78.70;;;;;;4914899;29;19927;-83
2022/08/10 02:38:08;;;;;;;;;;;21.80;78.80;;;;;;4927974;29;19927;-82
2022/08/10 02:40:37;;;;;;;;;;;21.80;79.00;;;;;;4924000;29;20040;-83
2022/08/10 02:43:27;;;;;;;;;;;21.80;79.00;;;;;;4921863;29;19973;-82
2022/08/10 02:46:17;;;;;;;;;;;21.80;78.90;;;;;;4916839;29;20021;-85
2022/08/10 02:48:50;;;;;;;;;;;21.80;79.90;;;;;;4919945;29;19931;-83
2022/08/10 02:51:19;;;;;;;;;;;21.70;79.10;;;;;;4915188;29;20014;-83
2022/08/10 02:54:08;;;;;;;;;;;21.70;78.90;;;;;;4928434;29;20013;-83
2022/08/10 02:56:35;;;;;;;;;;;21.70;79.00;;;;;;4937041;29;19927;-84
2022/08/10 02:59:06;;;;;;;;;;;21.70;79.40;;;;;;4914934;29;19935;-82
2022/08/10 03:01:35;;;;;;;;;;;21.70;79.60;;;;;;4918304;29;19927;-83
2022/08/10 03:04:02;;;;;;;;;;;21.70;80.00;;;;;;4918744;29;19935;-84
2022/08/10 03:06:33;;;;;;;;;;;21.60;80.00;;;;;;4914032;29;19927;-84
2022/08/10 03:09:01;;;;;;;;;;;21.50;80.20;;;;;;4932647;29;19927;-84
2022/08/10 03:11:29;;;;;;;;;;;21.40;80.50;;;;;;4925372;29;19935;-82
2022/08/10 03:14:17;;;;;;;;;;;21.40;80.50;;;;;;4925233;29;19927;-82
2022/08/10 03:16:45;;;;;;;;;;;21.30;80.60;;;;;;4920744;29;19927;-83
2022/08/10 03:19:13;;;;;;;;;;;21.30;81.10;;;;;;4915848;29;19994;-85
2022/08/10 03:22:03;;;;;;;;;;;21.20;81.10;;;;;;4920026;29;19927;-83
2022/08/10 03:24:30;;;;;;;;;;;21.20;81.40;;;;;;4901584;29;19981;-82
2022/08/10 03:26:59;;;;;;;;;;;21.20;81.90;;;;;;4932121;29;19934;-82
2022/08/10 03:29:27;;;;;;;;;;;21.20;82.20;;;;;;4916420;29;19927;-82
2022/08/10 03:31:54;;;;;;;;;;;21.20;82.30;;;;;;4933158;29;19931;-83
2022/08/10 03:34:23;;;;;;;;;;;21.10;82.60;;;;;;4910403;29;20454;-83
2022/08/10 03:36:59;;;;;;;;;;;21.10;82.40;;;;;;4919578;29;20309;-82
2022/08/10 03:39:26;;;;;;;;;;;21.00;82.10;;;;;;4916765;29;19927;-84
2022/08/10 03:41:55;;;;;;;;;;;21.10;82.30;;;;;;4916264;29;19935;-83
2022/08/10 03:44:24;;;;;;;;;;;21.00;82.50;;;;;;4939419;29;20315;-83
2022/08/10 03:46:52;;;;;;;;;;;21.00;82.80;;;;;;4915046;29;19927;-83
2022/08/10 03:49:19;;;;;;;;;;;21.00;82.90;;;;;;4917548;29;19927;-83
2022/08/10 03:51:48;;;;;;;;;;;21.00;82.70;;;;;;4915006;29;19934;-83
2022/08/10 03:54:16;;;;;;;;;;;21.00;82.40;;;;;;4923067;29;20312;-83
2022/08/10 03:56:44;;;;;;;;;;;21.00;82.20;;;;;;4934176;29;19931;-84
2022/08/10 03:59:12;;;;;;;;;;;21.00;82.00;;;;;;4921196;29;19934;-82
2022/08/10 04:01:43;;;;;;;;;;;20.90;82.00;;;;;;4922152;29;19993;-82
2022/08/10 04:04:29;;;;;;;;;;;20.90;82.10;;;;;;4917178;29;19939;-82
2022/08/10 04:06:57;;;;;;;;;;;20.90;82.40;;;;;;4921856;29;19930;-83
2022/08/10 04:09:32;;;;;;;;;;;20.80;82.30;;;;;;4916390;29;19935;-84
2022/08/10 04:12:19;;;;;;;;;;;20.80;82.30;;;;;;4920862;29;19928;-82
2022/08/10 04:14:46;;;;;;;;;;;20.70;82.10;;;;;;4918092;29;19927;-82
2022/08/10 04:17:21;;;;;;;;;;;20.70;82.00;;;;;;4932908;29;19938;-83
2022/08/10 04:20:29;;;;;;;;;;;20.70;82.00;;;;;;4921669;29;19935;-84
2022/08/10 04:23:03;;;;;;;;;;;20.60;81.80;;;;;;4918165;29;19957;-84
2022/08/10 04:25:30;;;;;;;;;;;20.70;82.00;;;;;;4918842;29;19927;-82
2022/08/10 04:27:57;;;;;;;;;;;20.60;82.00;;;;;;4941873;29;20343;-84
2022/08/10 04:30:25;;;;;;;;;;;20.60;82.20;;;;;;4937678;29;19955;-82
2022/08/10 04:32:55;;;;;;;;;;;20.60;82.80;;;;;;4918650;29;20403;-82
2022/08/10 04:35:22;;;;;;;;;;;20.60;83.40;;;;;;4916866;29;20299;-82
2022/08/10 04:37:50;;;;;;;;;;;20.60;83.50;;;;;;4918303;29;19927;-83
2022/08/10 04:40:18;;;;;;;;;;;20.60;83.60;;;;;;4938643;29;19931;-82
2022/08/10 04:43:03;;;;;;;;;;;20.60;83.70;;;;;;4924753;29;19933;-82
2022/08/10 04:45:40;;;;;;;;;;;20.50;84.70;;;;;;4943187;28;19926;-82
2022/08/10 04:48:16;;;;;;;;;;;20.50;83.70;;;;;;4912875;29;19926;-82
2022/08/10 04:51:04;;;;;;;;;;;20.50;83.80;;;;;;4918364;29;20410;-83
2022/08/10 04:53:30;;;;;;;;;;;20.50;84.30;;;;;;4932236;29;19926;-84
2022/08/10 04:55:58;;;;;;;;;;;20.50;84.30;;;;;;4939786;29;19933;-82
2022/08/10 04:58:25;;;;;;;;;;;20.50;84.40;;;;;;4923208;29;20346;-82
2022/08/10 05:00:51;;;;;;;;;;;20.50;84.20;;;;;;4917162;29;19977;-82
2022/08/10 05:03:18;;;;;;;;;;;20.50;84.20;;;;;;4933398;29;19978;-84
2022/08/10 05:05:46;;;;;;;;;;;20.50;84.30;;;;;;4921874;29;19927;-83
2022/08/10 05:08:16;;;;;;;;;;;20.50;84.20;;;;;;4934291;29;19926;-82
2022/08/10 05:10:43;;;;;;;;;;;20.50;84.60;;;;;;4922502;29;19935;-84
2022/08/10 05:13:10;;;;;;;;;;;20.50;84.90;;;;;;4924034;29;19927;-83
2022/08/10 05:15:37;;;;;;;;;;;20.50;85.00;;;;;;4895568;29;19927;-84
2022/08/10 05:18:04;;;;;;;;;;;20.50;85.10;;;;;;4926532;29;19931;-83
2022/08/10 05:20:35;;;;;;;;;;;20.60;85.30;;;;;;4913631;29;20389;-82
2022/08/10 05:23:02;;;;;;;;;;;20.60;85.00;;;;;;4914458;29;19983;-82
2022/08/10 05:25:29;;;;;;;;;;;20.60;84.80;;;;;;4907275;29;19927;-82
2022/08/10 05:28:03;;;;;;;;;;;20.60;84.80;;;;;;4934488;29;19931;-82
2022/08/10 05:30:33;;;;;;;;;;;20.70;84.80;;;;;;4917993;29;19927;-84
2022/08/10 05:32:59;;;;;;;;;;;20.80;84.80;;;;;;4934483;29;19927;-83
2022/08/10 05:35:35;;;;;;;;;;;20.80;84.90;;;;;;4930690;29;19930;-85
2022/08/10 05:38:24;;;;;;;;;;;20.90;85.10;;;;;;4942345;29;20013;-83
2022/08/10 05:40:51;;;;;;;;;;;20.90;85.40;;;;;;4938408;29;19951;-82
2022/08/10 05:43:19;;;;;;;;;;;21.00;85.60;;;;;;4937686;29;20383;-83
2022/08/10 05:45:48;;;;;;;;;;;21.00;85.80;;;;;;4931525;29;20013;-84
2022/08/10 05:48:35;;;;;;;;;;;21.10;85.60;;;;;;4938130;29;19934;-82
2022/08/10 05:51:23;;;;;;;;;;;21.10;85.20;;;;;;4911956;29;19958;-83
2022/08/10 05:53:50;;;;;;;;;;;21.20;84.90;;;;;;4924951;29;20379;-82
2022/08/10 05:56:34;;;;;;;;;;;21.30;84.90;;;;;;4938498;29;19998;-84
2022/08/10 05:59:22;;;;;;;;;;;21.30;85.20;;;;;;4915667;28;19926;-83
2022/08/10 06:02:12;;;;;;;;;;;21.40;84.80;;;;;;4943122;29;19954;-83
2022/08/10 06:05:02;;;;;;;;;;;21.50;85.60;;;;;;4938693;29;19927;-82
2022/08/10 06:07:29;;;;;;;;;;;21.60;85.60;;;;;;4917882;29;19928;-83
2022/08/10 06:09:57;;;;;;;;;;;21.60;86.00;;;;;;4926853;29;19989;-83
2022/08/10 06:12:28;;;;;;;;;;;21.70;86.30;;;;;;4920688;29;19926;-83
2022/08/10 06:15:00;;;;;;;;;;;21.70;86.60;;;;;;4918305;29;19926;-82
2022/08/10 06:17:31;;;;;;;;;;;21.80;86.60;;;;;;4915202;29;19957;-82
2022/08/10 06:19:59;;;;;;;;;;;21.90;86.00;;;;;;4938051;29;19939;-83
2022/08/10 06:22:27;;;;;;;;;;;21.90;85.40;;;;;;4938731;29;19978;-84
2022/08/10 06:24:59;;;;;;;;;;;22.00;83.90;;;;;;4924443;29;19982;-82
2022/08/10 06:27:47;;;;;;;;;;;22.00;82.90;;;;;;4932145;29;19931;-85
2022/08/10 06:30:21;;;;;;;;;;;22.10;82.20;;;;;;4919583;29;19981;-85
2022/08/10 06:33:03;;;;;;;;;;;22.20;82.70;;;;;;4927612;29;19927;-82
2022/08/10 06:35:31;;;;;;;;;;;22.30;80.90;;;;;;4922855;29;19935;-82
2022/08/10 06:38:00;;;;;;;;;;;22.40;80.00;;;;;;4931516;29;20001;-84
2022/08/10 06:40:31;;;;;;;;;;;22.50;79.20;;;;;;4919914;29;19931;-82
2022/08/10 06:43:00;;;;;;;;;;;22.60;78.30;;;;;;4929539;29;19940;-83
2022/08/10 06:45:29;;;;;;;;;;;22.70;77.80;;;;;;4925846;29;20469;-82
2022/08/10 06:48:01;;;;;;;;;;;22.80;77.50;;;;;;4919831;29;19927;-81
2022/08/10 06:50:30;;;;;;;;;;;22.90;77.00;;;;;;4919909;29;19934;-83
2022/08/10 06:53:18;;;;;;;;;;;23.00;76.20;;;;;;4920664;29;20371;-82
2022/08/10 06:55:48;;;;;;;;;;;23.10;75.10;;;;;;4931242;29;20374;-83
2022/08/10 06:58:23;;;;;;;;;;;23.20;74.50;;;;;;4935067;29;20346;-81
2022/08/10 07:00:53;;;;;;;;;;;23.30;74.10;;;;;;4935707;29;20486;-82
2022/08/10 07:03:24;;;;;;;;;;;23.40;72.40;;;;;;4935898;29;19943;-81
2022/08/10 07:05:52;;;;;;;;;;;23.50;71.90;;;;;;4929231;29;20009;-84
2022/08/10 07:08:20;;;;;;;;;;;23.60;71.00;;;;;;4935129;29;19986;-80
2022/08/10 07:10:48;;;;;;;;;;;23.80;69.70;;;;;;4933620;29;19930;-85
2022/08/10 07:13:15;;;;;;;;;;;23.90;68.20;;;;;;4933340;29;20350;-83
2022/08/10 07:16:02;;;;;;;;;;;24.00;67.70;;;;;;4936179;29;19935;-83
2022/08/10 07:18:30;;;;;;;;;;;24.10;67.30;;;;;;4924884;29;19931;-83
2022/08/10 07:20:57;;;;;;;;;;;24.30;66.90;;;;;;4938517;29;20307;-81
2022/08/10 07:23:24;;;;;;;;;;;24.40;67.00;;;;;;4937936;29;19950;-78
2022/08/10 07:26:12;;;;;;;;;;;24.50;66.60;;;;;;4921935;29;19927;-84
2022/08/10 07:28:39;;;;;;;;;;;24.70;65.80;;;;;;4935448;29;20010;-83
2022/08/10 07:31:14;;;;;;;;;;;24.90;65.70;;;;;;4927630;29;19934;-83
2022/08/10 07:34:05;;;;;;;;;;;25.10;64.60;;;;;;4914621;29;19935;-79
2022/08/10 07:36:32;;;;;;;;;;;25.30;62.20;;;;;;4937407;29;19930;-82
2022/08/10 07:38:59;;;;;;;;;;;25.40;60.70;;;;;;4925117;29;19927;-80
2022/08/10 07:41:30;;;;;;;;;;;25.50;59.80;;;;;;4913951;29;19970;-79
2022/08/10 07:43:58;;;;;;;;;;;25.70;60.60;;;;;;4918390;29;19927;-81
2022/08/10 07:46:27;;;;;;;;;;;25.90;60.80;;;;;;4933605;29;19930;-84
2022/08/10 07:48:58;;;;;;;;;;;26.00;59.30;;;;;;4912364;29;19979;-82
2022/08/10 07:51:25;;;;;;;;;;;26.20;58.60;;;;;;4934432;29;19955;-85
2022/08/10 07:53:53;;;;;;;;;;;26.40;58.40;;;;;;4920662;29;19927;-82
2022/08/10 07:56:23;;;;;;;;;;;26.60;54.80;;;;;;4915374;29;19974;-84
2022/08/10 07:59:10;;;;;;;;;;;26.80;54.70;;;;;;4916799;29;19978;-84
2022/08/10 08:01:49;;;;;;;;;;;27.00;55.10;;;;;;4938394;29;20646;-84
2022/08/10 08:04:18;;;;;;;;;;;27.20;52.90;;;;;;4917083;29;19938;-82
2022/08/10 08:06:45;;;;;;;;;;;27.40;53.00;;;;;;4934593;29;19990;-82
2022/08/10 08:09:12;;;;;;;;;;;27.60;49.60;;;;;;4936050;29;19927;-83
2022/08/10 08:11:41;;;;;;;;;;;27.80;50.30;;;;;;4942383;29;20459;-82
2022/08/10 08:14:09;;;;;;;;;;;27.90;49.80;;;;;;4915251;29;19931;-81
2022/08/10 08:16:37;;;;;;;;;;;28.10;47.70;;;;;;4916341;29;20350;-81
2022/08/10 08:19:04;;;;;;;;;;;28.20;47.70;;;;;;4917560;29;19958;-81
2022/08/10 08:21:52;;;;;;;;;;;28.20;46.40;;;;;;4928294;29;20013;-80
2022/08/10 08:24:40;;;;;;;;;;;28.30;46.40;;;;;;4920840;29;20018;-81
2022/08/10 08:27:09;;;;;;;;;;;28.40;47.10;;;;;;4925411;29;19934;-79
2022/08/10 08:29:40;;;;;;;;;;;28.60;46.60;;;;;;4916399;29;20462;-82
2022/08/10 08:32:07;;;;;;;;;;;28.70;46.00;;;;;;4935004;29;20309;-81
2022/08/10 08:34:37;;;;;;;;;;;28.90;45.30;;;;;;4933776;29;20383;-80
2022/08/10 08:37:07;;;;;;;;;;;29.00;44.60;;;;;;4931171;29;19934;-79
2022/08/10 08:39:35;;;;;;;;;;;29.10;43.40;;;;;;4920963;29;20421;-84
2022/08/10 08:42:17;;;;;;;;;;;29.00;42.70;;;;;;4917807;29;20022;-79
2022/08/10 08:44:52;;;;;;;;;;;28.90;44.40;;;;;;4944953;29;20342;-79
2022/08/10 08:47:41;;;;;;;;;;;29.00;45.80;;;;;;4921438;29;19927;-81
2022/08/10 08:50:27;;;;;;;;;;;29.10;44.80;;;;;;4924885;29;19927;-84
2022/08/10 08:53:02;;;;;;;;;;;29.20;44.80;;;;;;4913774;29;20335;-83
2022/08/10 08:56:23;;;;;;;;;;;29.30;44.60;;;;;;4942595;29;20031;-84
2022/08/10 08:59:02;;;;;;;;;;;29.50;44.00;;;;;;4838488;29;20029;-84
2022/08/10 09:01:51;;;;;;;;;;;29.70;43.50;;;;;;4910484;29;19990;-81
2022/08/10 09:04:27;;;;;;;;;;;30.00;43.70;;;;;;4917930;29;20298;-82
2022/08/10 09:06:54;;;;;;;;;;;30.20;42.50;;;;;;4937189;29;19949;-82
2022/08/10 09:09:46;;;;;;;;;;;30.20;42.00;;;;;;4940176;29;19926;-80
2022/08/10 09:12:21;;;;;;;;;;;30.30;41.80;;;;;;4931765;29;20045;-79
2022/08/10 09:15:07;;;;;;;;;;;30.50;42.40;;;;;;4919734;29;19981;-83
2022/08/10 09:17:52;;;;;;;;;;;30.60;42.00;;;;;;4917182;29;19983;-84
2022/08/10 09:20:32;;;;;;;;;;;30.60;41.00;;;;;;4938323;29;20280;-82
2022/08/10 09:23:06;;;;;;;;;;;30.70;39.60;;;;;;4923223;29;19934;-82
2022/08/10 09:25:37;;;;;;;;;;;30.70;39.90;;;;;;4920004;29;19931;-79
2022/08/10 09:28:06;;;;;;;;;;;30.80;39.20;;;;;;4918756;29;19931;-82
2022/08/10 09:30:51;;;;;;;;;;;30.70;38.20;;;;;;4908644;29;19995;-82
2022/08/10 09:33:53;;;;;;;;;;;30.60;37.80;;;;;;4917961;29;20030;-80
2022/08/10 09:36:55;;;;;;;;;;;30.50;38.60;;;;;;4934505;29;20001;-82
2022/08/10 09:39:25;;;;;;;;;;;30.40;38.30;;;;;;4923799;29;19927;-81
2022/08/10 09:42:56;;;;;;;;;;;30.50;38.30;;;;;;4920036;29;20386;-82
2022/08/10 09:45:53;;;;;;;;;;;30.50;39.20;;;;;;4891630;29;19931;-84
2022/08/10 09:48:31;;;;;;;;;;;30.80;39.20;;;;;;4876199;29;19964;-84
2022/08/10 09:51:16;;;;;;;;;;;31.00;38.40;;;;;;4925968;29;19951;-85
2022/08/10 09:54:04;;;;;;;;;;;31.30;37.40;;;;;;4934460;28;19962;-81
2022/08/10 09:56:54;;;;;;;;;;;31.50;37.70;;;;;;4923134;29;19927;-85
2022/08/10 09:59:49;;;;;;;;;;;31.60;39.10;;;;;;4927941;29;19926;-81
2022/08/10 10:02:30;;;;;;;;;;;31.40;38.20;;;;;;4935461;29;19930;-85
2022/08/10 10:04:58;;;;;;;;;;;31.30;37.30;;;;;;4920042;29;20052;-82
2022/08/10 10:07:25;;;;;;;;;;;31.20;37.70;;;;;;4919125;29;19948;-83
2022/08/10 10:10:03;;;;;;;;;;;31.00;37.70;;;;;;4928753;29;19926;-81
2022/08/10 10:12:32;;;;;;;;;;;30.80;39.50;;;;;;4931934;29;20010;-82
2022/08/10 10:15:19;;;;;;;;;;;30.90;39.90;;;;;;4921486;29;19927;-80
2022/08/10 10:18:06;;;;;;;;;;;31.10;39.90;;;;;;4920382;29;19934;-82
2022/08/10 10:20:51;;;;;;;;;;;31.20;39.30;;;;;;4917876;29;20311;-82
2022/08/10 10:23:39;;;;;;;;;;;31.20;39.60;;;;;;4897272;29;20406;-80
2022/08/10 10:26:06;;;;;;;;;;;31.20;39.20;;;;;;4890398;29;19931;-80
2022/08/10 10:28:59;;;;;;;;;;;31.20;39.80;;;;;;4894756;29;20358;-81
2022/08/10 10:31:59;;;;;;;;;;;31.30;38.30;;;;;;4916812;29;19927;-81
2022/08/10 10:34:53;;;;;;;;;;;31.20;38.30;;;;;;4914396;29;19975;-79
2022/08/10 10:37:20;;;;;;;;;;;31.20;40.40;;;;;;4886387;29;20319;-81
2022/08/10 10:40:07;;;;;;;;;;;31.40;39.30;;;;;;4902141;29;20014;-81
2022/08/10 10:42:57;;;;;;;;;;;31.40;39.60;;;;;;4916612;29;20360;-87
2022/08/10 10:45:30;;;;;;;;;;;31.50;37.50;;;;;;4903605;29;19938;-80
2022/08/10 10:48:14;;;;;;;;;;;31.40;38.50;;;;;;4891506;29;20357;-80
2022/08/10 10:51:08;;;;;;;;;;;31.60;39.10;;;;;;4916080;29;19931;-80
2022/08/10 10:53:53;;;;;;;;;;;31.80;38.00;;;;;;4899225;29;20027;-80
2022/08/10 10:56:34;;;;;;;;;;;32.10;37.10;;;;;;4912883;29;19966;-80
2022/08/10 10:59:05;;;;;;;;;;;32.20;37.20;;;;;;4895383;29;19931;-80
2022/08/10 11:02:10;;;;;;;;;;;32.30;36.70;;;;;;4913247;29;19979;-80
2022/08/10 11:04:44;;;;;;;;;;;32.40;37.70;;;;;;4914684;29;19983;-80
2022/08/10 11:07:22;;;;;;;;;;;32.60;37.50;;;;;;4915477;29;19927;-80
2022/08/10 11:09:58;;;;;;;;;;;32.70;36.80;;;;;;4917798;29;19986;-86
2022/08/10 11:12:52;;;;;;;;;;;32.70;36.20;;;;;;4897681;29;20006;-87
2022/08/10 11:15:23;;;;;;;;;;;32.90;36.30;;;;;;4892480;29;20026;-87
2022/08/10 11:18:09;;;;;;;;;;;32.80;35.20;;;;;;4902539;29;20048;-81
2022/08/10 11:21:05;;;;;;;;;;;32.70;34.60;;;;;;4890356;29;19932;-79
2022/08/10 11:23:41;;;;;;;;;;;32.60;36.10;;;;;;4924448;29;19927;-78
2022/08/10 11:26:34;;;;;;;;;;;32.60;36.00;;;;;;4918261;29;19927;-87
2022/08/10 11:29:01;;;;;;;;;;;32.70;34.60;;;;;;4874112;29;19927;-80
2022/08/10 11:31:34;;;;;;;;;;;32.70;36.00;;;;;;4899941;29;19931;-80
2022/08/10 11:34:23;;;;;;;;;;;32.70;34.20;;;;;;4889389;29;20035;-80
2022/08/10 11:37:28;;;;;;;;;;;32.70;33.70;;;;;;4913703;29;19954;-82
2022/08/10 11:40:23;;;;;;;;;;;32.50;35.70;;;;;;4900036;29;20014;-80
2022/08/10 11:42:59;;;;;;;;;;;32.70;35.80;;;;;;4917947;29;19935;-80
2022/08/10 11:45:28;;;;;;;;;;;32.80;35.10;;;;;;4902236;29;19927;-87
2022/08/10 11:48:05;;;;;;;;;;;32.90;34.40;;;;;;4902222;29;19956;-80
2022/08/10 11:50:35;;;;;;;;;;;33.00;34.30;;;;;;4919254;29;19978;-80
2022/08/10 11:53:15;;;;;;;;;;;33.10;33.60;;;;;;4903060;29;19931;-79
2022/08/10 11:55:48;;;;;;;;;;;33.10;33.50;;;;;;4900820;29;19994;-79
2022/08/10 12:01:04;;;;;;;;;;;33.30;34.50;;;;;;4913241;29;19927;-79
2022/08/10 12:03:31;;;;;;;;;;;33.40;34.80;;;;;;4895581;29;20304;-87
2022/08/10 12:06:02;;;;;;;;;;;33.40;31.90;;;;;;4903874;29;19983;-79
2022/08/10 12:08:29;;;;;;;;;;;33.50;33.70;;;;;;4902213;29;19994;-80
2022/08/10 12:11:21;;;;;;;;;;;33.60;31.90;;;;;;4903667;29;20014;-79
2022/08/10 12:14:01;;;;;;;;;;;33.40;31.60;;;;;;4915471;29;20291;-80
2022/08/10 12:16:50;;;;;;;;;;;33.30;33.30;;;;;;4900771;29;19960;-80
2022/08/10 12:19:26;;;;;;;;;;;33.40;33.50;;;;;;4906310;29;19932;-80
2022/08/10 12:22:00;;;;;;;;;;;33.70;33.20;;;;;;4934496;29;19938;-88
2022/08/10 12:24:50;;;;;;;;;;;33.90;34.20;;;;;;4923467;29;20026;-79
2022/08/10 12:27:19;;;;;;;;;;;34.10;31.70;;;;;;4911092;29;20303;-80
2022/08/10 12:29:52;;;;;;;;;;;34.00;31.40;;;;;;4942735;29;19931;-79
2022/08/10 12:32:38;;;;;;;;;;;33.90;31.60;;;;;;4922334;29;20387;-80
2022/08/10 12:35:05;;;;;;;;;;;33.90;32.20;;;;;;4930092;29;19926;-87
2022/08/10 12:37:45;;;;;;;;;;;34.20;32.30;;;;;;4941141;29;19926;-81
2022/08/10 12:40:25;;;;;;;;;;;34.30;32.70;;;;;;4938944;29;19930;-81
2022/08/10 12:43:07;;;;;;;;;;;34.60;31.30;;;;;;4944469;29;19935;-79
2022/08/10 12:45:57;;;;;;;;;;;34.70;30.30;;;;;;4920206;29;20463;-86
2022/08/10 12:48:35;;;;;;;;;;;34.60;30.20;;;;;;4922024;29;19931;-80
2022/08/10 12:51:11;;;;;;;;;;;34.40;30.60;;;;;;4925001;28;19954;-81
2022/08/10 12:53:44;;;;;;;;;;;34.30;30.70;;;;;;4933059;29;19931;-87
2022/08/10 12:56:17;;;;;;;;;;;34.30;31.30;;;;;;4921836;29;20302;-80
2022/08/10 12:58:44;;;;;;;;;;;34.30;31.50;;;;;;4929616;29;19982;-79
2022/08/10 13:01:30;;;;;;;;;;;34.40;31.00;;;;;;4924371;28;19930;-87
2022/08/10 13:04:22;;;;;;;;;;;34.50;30.40;;;;;;4924850;29;20010;-87
2022/08/10 13:06:50;;;;;;;;;;;34.70;30.40;;;;;;4928511;29;19927;-79
2022/08/10 13:09:22;;;;;;;;;;;34.90;30.50;;;;;;4948568;29;19989;-81
2022/08/10 13:12:00;;;;;;;;;;;34.90;29.50;;;;;;4924152;29;19982;-88
2022/08/10 13:14:52;;;;;;;;;;;35.00;29.40;;;;;;4929627;28;20017;-79
2022/08/10 13:17:22;;;;;;;;;;;35.00;30.00;;;;;;4941065;28;19931;-80
2022/08/10 13:19:50;;;;;;;;;;;35.10;29.50;;;;;;4921405;29;19934;-85
2022/08/10 13:22:26;;;;;;;;;;;35.10;29.90;;;;;;4939216;29;19930;-87
2022/08/10 13:24:54;;;;;;;;;;;35.10;28.90;;;;;;4939470;29;20302;-78
2022/08/10 13:27:28;;;;;;;;;;;35.10;29.40;;;;;;4937348;29;20354;-79
2022/08/10 13:30:15;;;;;;;;;;;35.20;29.50;;;;;;4926114;29;19966;-90
2022/08/10 13:32:46;;;;;;;;;;;35.20;29.30;;;;;;4930248;29;19966;-88
2022/08/10 13:35:19;;;;;;;;;;;35.30;29.70;;;;;;4927270;29;20411;-80
2022/08/10 13:37:47;;;;;;;;;;;35.20;29.60;;;;;;4933734;29;20402;-80
2022/08/10 13:40:16;;;;;;;;;;;35.20;29.50;;;;;;4934193;29;19931;-79
2022/08/10 13:42:44;;;;;;;;;;;35.20;30.10;;;;;;4923457;29;20025;-80
2022/08/10 13:45:21;;;;;;;;;;;35.30;29.90;;;;;;4912388;29;19939;-79
2022/08/10 13:47:49;;;;;;;;;;;35.40;30.00;;;;;;4909436;29;19998;-80
2022/08/10 13:50:23;;;;;;;;;;;35.40;30.20;;;;;;4917766;29;19986;-80
2022/08/10 13:53:03;;;;;;;;;;;35.40;30.20;;;;;;4937999;28;19970;-88
2022/08/10 13:55:39;;;;;;;;;;;35.40;31.50;;;;;;4911011;29;19961;-87
2022/08/10 13:58:22;;;;;;;;;;;35.40;30.10;;;;;;4932291;29;19956;-79
2022/08/10 14:00:49;;;;;;;;;;;35.30;30.00;;;;;;4931115;29;19935;-79
2022/08/10 14:03:16;;;;;;;;;;;35.30;30.20;;;;;;4912037;28;19927;-79
2022/08/10 14:05:48;;;;;;;;;;;35.30;30.40;;;;;;4920480;29;19930;-87
2022/08/10 14:08:16;;;;;;;;;;;35.20;30.30;;;;;;4934983;29;19950;-82
2022/08/10 14:10:44;;;;;;;;;;;35.40;30.70;;;;;;4920219;29;19990;-87
2022/08/10 14:13:34;;;;;;;;;;;35.50;31.00;;;;;;4923191;29;20454;-80
2022/08/10 14:16:06;;;;;;;;;;;35.60;30.50;;;;;;4945747;29;20390;-82
2022/08/10 14:18:34;;;;;;;;;;;35.90;30.40;;;;;;4940003;29;20449;-87
2022/08/10 14:21:01;;;;;;;;;;;36.10;30.10;;;;;;4923779;29;19991;-82
2022/08/10 14:23:31;;;;;;;;;;;36.20;29.30;;;;;;4921164;29;20440;-80
2022/08/10 14:25:59;;;;;;;;;;;36.30;29.50;;;;;;4940172;29;20175;-81
2022/08/10 14:28:34;;;;;;;;;;;36.40;29.80;;;;;;4928371;29;20021;-87
2022/08/10 14:31:03;;;;;;;;;;;36.50;29.80;;;;;;4920540;29;19930;-82
2022/08/10 14:33:30;;;;;;;;;;;36.50;28.80;;;;;;4923897;29;19949;-81
2022/08/10 14:35:57;;;;;;;;;;;36.40;28.90;;;;;;4924120;29;19930;-80
2022/08/10 14:38:45;;;;;;;;;;;36.40;28.90;;;;;;4939675;29;19949;-81
2022/08/10 14:41:20;;;;;;;;;;;36.10;29.30;;;;;;4915646;29;19927;-88
2022/08/10 14:44:08;;;;;;;;;;;36.10;29.60;;;;;;4919902;29;20021;-86
2022/08/10 14:46:39;;;;;;;;;;;36.20;29.50;;;;;;4927196;29;19930;-81
2022/08/10 14:49:10;;;;;;;;;;;36.20;29.40;;;;;;4939128;29;20386;-79
2022/08/10 14:51:56;;;;;;;;;;;36.20;29.70;;;;;;4923910;29;19974;-80
2022/08/10 14:54:25;;;;;;;;;;;36.30;29.20;;;;;;4922292;29;19937;-80
2022/08/10 14:57:01;;;;;;;;;;;36.20;29.60;;;;;;4922462;29;20025;-80
2022/08/10 14:59:38;;;;;;;;;;;36.10;29.60;;;;;;4918695;29;19931;-80
2022/08/10 15:02:26;;;;;;;;;;;36.00;29.00;;;;;;4932874;29;20018;-80
2022/08/10 15:05:08;;;;;;;;;;;36.10;30.10;;;;;;4919338;29;20294;-89